Time;durP1;ratioP1;P1;durP2;ratioP2;P2;SDS_P1;SDS_P2;PMS_P1;PMS_P2;Temp;Humidity;BMP_temperature;BMP_pressure;BME280_temperature;BME280_humidity;BME280_pressure;Samples;Min_cycle;Max_cycle;Signal;HPM_P1;HPM_P2
2023/10/04 00:01:04;;;;;;;;;;;;;;;;;;;;;
2023/10/04 00:04:01;;;;;;;9.57;2.75;;;;;;;;;;6328864;22;20019;-88
2023/10/04 00:06:50;;;;;;;8.80;1.88;;;;;;;;;;6306122;22;20063;-89
2023/10/04 00:09:39;;;;;;;12.57;2.72;;;;;;;;;;6308397;22;20034;-89
2023/10/04 00:12:23;;;;;;;10.73;2.50;;;;;;;;;;6306244;22;20003;-88
2023/10/04 00:18:17;;;;;;;7.47;2.40;;;;;;;;;;6332347;22;20101;-89
2023/10/04 00:21:01;;;;;;;8.38;2.38;;;;;;;;;;6299442;22;20049;-89
2023/10/04 00:23:44;;;;;;;14.48;3.67;;;;;;;;;;6331964;22;20033;-88
2023/10/04 00:26:25;;;;;;;9.63;2.25;;;;;;;;;;6307443;22;20008;-89
2023/10/04 00:29:15;;;;;;;10.85;1.98;;;;;;;;;;6299173;22;20015;-89
2023/10/04 00:32:06;;;;;;;14.02;2.70;;;;;;;;;;6309697;22;20019;-88
2023/10/04 00:34:52;;;;;;;8.25;1.98;;;;;;;;;;6331982;22;20002;-89
2023/10/04 00:37:55;;;;;;;9.55;2.60;;;;;;;;;;6208441;23;20021;-89
2023/10/04 00:40:47;;;;;;;8.65;2.08;;;;;;;;;;6207400;23;20029;-88
2023/10/04 00:43:27;;;;;;;8.32;2.10;;;;;;;;;;6185877;23;20056;-88
2023/10/04 00:46:11;;;;;;;8.10;2.03;;;;;;;;;;6206127;23;20052;-88
2023/10/04 00:49:02;;;;;;;4.70;1.83;;;;;;;;;;6183492;23;20159;-89
2023/10/04 00:51:43;;;;;;;10.48;2.92;;;;;;;;;;6204504;23;20025;-90
2023/10/04 00:54:24;;;;;;;6.18;2.08;;;;;;;;;;6179702;23;20024;-88
2023/10/04 00:57:21;;;;;;;;;;;;;;;;;;;;;
2023/10/04 00:59:56;;;;;;;11.38;2.13;;;;;;;;;;6213454;23;20009;-90
2023/10/04 01:02:33;;;;;;;;;;;;;;;;;;6213379;23;20024;-90
2023/10/04 01:05:07;;;;;;;;;;;;;;;;;;6190186;23;19900;-88
2023/10/04 01:07:45;;;;;;;8.85;1.80;;;;;;;;;;6228880;22;19899;-88
2023/10/04 01:10:16;;;;;;;10.60;2.15;;;;;;;;;;6305364;22;20032;-87
2023/10/04 01:13:06;;;;;;;12.48;2.10;;;;;;;;;;6304969;22;20039;-89
2023/10/04 01:15:45;;;;;;;9.68;2.08;;;;;;;;;;6304900;22;20093;-89
2023/10/04 01:18:23;;;;;;;6.45;1.95;;;;;;;;;;6308370;22;20007;-89
2023/10/04 01:21:16;;;;;;;6.75;2.20;;;;;;;;;;6310246;22;20019;-90
2023/10/04 01:23:50;;;;;;;7.63;2.00;;;;;;;;;;6336599;22;20015;-89
2023/10/04 01:26:39;;;;;;;6.00;2.17;;;;;;;;;;6311164;22;20003;-87
2023/10/04 01:29:23;;;;;;;8.82;1.90;;;;;;;;;;6336672;22;20011;-90
2023/10/04 01:32:11;;;;;;;;;;;;;;;;;;;;;
2023/10/04 01:34:59;;;;;;;7.60;2.03;;;;;;;;;;6336204;22;20014;-89
2023/10/04 01:37:39;;;;;;;7.50;1.92;;;;;;;;;;6311445;22;20041;-89
2023/10/04 01:40:32;;;;;;;6.25;1.70;;;;;;;;;;6334360;22;20011;-89
2023/10/04 01:43:18;;;;;;;9.90;1.83;;;;;;;;;;6336359;22;20038;-88
2023/10/04 01:46:00;;;;;;;11.10;2.70;;;;;;;;;;6336118;22;20007;-89
2023/10/04 01:48:51;;;;;;;7.45;1.58;;;;;;;;;;6312437;22;20007;-90
2023/10/04 01:55:27;;;;;;;8.80;2.45;;;;;;;;;;6336535;22;20014;-90
2023/10/04 01:58:23;;;;;;;7.30;1.60;;;;;;;;;;6266441;22;20007;-89
2023/10/04 02:01:08;;;;;;;9.93;2.43;;;;;;;;;;6309322;22;20079;-88
2023/10/04 02:04:04;;;;;;;7.93;2.30;;;;;;;;;;6221092;22;20039;-89
2023/10/04 02:09:26;;;;;;;15.45;2.75;;;;;;;;;;6282928;22;20040;-87
2023/10/04 02:15:07;;;;;;;10.43;2.50;;;;;;;;;;6305315;22;20083;-86
2023/10/04 02:18:01;;;;;;;6.90;1.85;;;;;;;;;;6279928;22;20027;-88
2023/10/04 02:20:39;;;;;;;8.02;1.80;;;;;;;;;;6280900;22;20344;-87
2023/10/04 02:23:34;;;;;;;8.15;1.70;;;;;;;;;;6282797;22;20018;-88
2023/10/04 02:26:13;;;;;;;11.77;2.38;;;;;;;;;;6312570;22;20064;-89
2023/10/04 02:29:09;;;;;;;8.25;1.73;;;;;;;;;;6329091;22;20011;-86
2023/10/04 02:35:24;;;;;;;13.98;2.60;;;;;;;;;;6324413;22;20033;-89
2023/10/04 02:38:16;;;;;;;12.65;2.30;;;;;;;;;;6310296;22;20008;-87
2023/10/04 02:40:54;;;;;;;18.42;2.35;;;;;;;;;;6309386;22;20014;-91
2023/10/04 02:43:44;;;;;;;10.23;2.08;;;;;;;;;;6332609;22;20007;-89
2023/10/04 02:46:44;;;;;;;14.60;2.00;;;;;;;;;;6310878;22;20022;-90
2023/10/04 02:49:37;;;;;;;7.35;2.00;;;;;;;;;;6311655;22;20017;-89
2023/10/04 02:52:23;;;;;;;12.77;2.05;;;;;;;;;;6309495;22;20015;-88
2023/10/04 02:59:03;;;;;;;7.45;1.75;;;;;;;;;;6335639;22;20029;-88
2023/10/04 03:01:41;;;;;;;9.60;1.83;;;;;;;;;;6309863;22;20008;-88
2023/10/04 03:04:32;;;;;;;11.30;2.80;;;;;;;;;;6307869;22;20066;-89
2023/10/04 03:07:05;;;;;;;20.95;2.17;;;;;;;;;;6309803;22;20034;-88
2023/10/04 03:10:10;;;;;;;8.65;2.15;;;;;;;;;;6314438;22;20038;-87
2023/10/04 03:13:00;;;;;;;15.35;2.13;;;;;;;;;;6307408;22;20022;-89
2023/10/04 03:15:55;;;;;;;9.30;2.10;;;;;;;;;;6312007;22;20003;-90
2023/10/04 03:21:48;;;;;;;5.40;1.85;;;;;;;;;;6330051;22;20007;-88
2023/10/04 03:24:20;;;;;;;;;;;;;;;;;;6335610;22;20046;-89
2023/10/04 03:27:05;;;;;;;12.45;2.63;;;;;;;;;;6335310;22;19909;-90
2023/10/04 03:29:58;;;;;;;11.30;3.33;;;;;;;;;;6334653;22;20007;-88
2023/10/04 03:32:39;;;;;;;7.25;2.20;;;;;;;;;;6270852;22;20087;-88
2023/10/04 03:35:38;;;;;;;13.30;2.40;;;;;;;;;;6303062;22;20014;-89
2023/10/04 03:38:25;;;;;;;12.57;1.77;;;;;;;;;;6301732;22;20047;-90
2023/10/04 03:47:21;;;;;;;13.18;2.33;;;;;;;;;;6281313;22;20038;-87
2023/10/04 03:50:17;;;;;;;7.60;1.90;;;;;;;;;;6275271;22;20019;-90
2023/10/04 03:55:53;;;;;;;14.25;2.25;;;;;;;;;;6289308;22;19999;-91
2023/10/04 04:01:31;;;;;;;8.57;2.53;;;;;;;;;;6291947;22;19999;-90
2023/10/04 04:04:19;;;;;;;14.18;2.05;;;;;;;;;;6272508;22;20036;-89
2023/10/04 04:09:52;;;;;;;13.88;2.60;;;;;;;;;;6287306;22;20046;-87
2023/10/04 04:12:45;;;;;;;12.73;2.15;;;;;;;;;;6304104;22;20015;-88
2023/10/04 04:21:29;;;;;;;13.63;1.85;;;;;;;;;;6333422;22;20066;-86
2023/10/04 04:41:25;;;;;;;11.10;2.10;;;;;;;;;;6332843;22;20064;-89
2023/10/04 04:57:14;;;;;;;18.70;3.17;;;;;;;;;;6316816;22;19999;-91
2023/10/04 08:42:11;;;;;;;11.38;2.45;;;;;;;;;;6331420;22;20413;-91
2023/10/04 09:13:44;;;;;;;10.07;2.08;;;;;;;;;;6287752;22;20007;-89
2023/10/04 09:17:14;;;;;;;9.93;2.78;;;;;;;;;;6267861;22;20092;-89
2023/10/04 22:16:46;;;;;;;9.10;2.25;;;;;;;;;;6284130;22;20011;-91
2023/10/04 22:27:18;;;;;;;13.55;2.83;;;;;;;;;;6292392;22;20007;-92
2023/10/04 22:30:12;;;;;;;9.25;2.45;;;;;;;;;;6309394;22;20007;-91
2023/10/04 22:35:39;;;;;;;9.75;2.20;;;;;;;;;;6318045;22;20011;-89
2023/10/04 22:38:26;;;;;;;7.55;1.98;;;;;;;;;;6308864;22;20050;-91
2023/10/04 22:41:23;;;;;;;;;;;;;;;;;;;;;
2023/10/04 22:46:52;;;;;;;8.85;2.20;;;;;;;;;;6302499;22;19903;-90
2023/10/04 22:49:42;;;;;;;10.95;2.28;;;;;;;;;;6261782;22;20037;-91
2023/10/04 22:52:43;;;;;;;9.27;2.55;;;;;;;;;;6297903;22;20015;-91
2023/10/04 22:55:43;;;;;;;8.85;2.42;;;;;;;;;;6322893;22;20007;-92
2023/10/04 22:58:28;;;;;;;11.35;3.42;;;;;;;;;;6294379;22;20042;-91
2023/10/04 23:01:22;;;;;;;8.43;2.47;;;;;;;;;;6335204;22;20008;-90
2023/10/04 23:09:30;;;;;;;9.95;2.50;;;;;;;;;;6304209;22;20102;-90
2023/10/04 23:15:38;;;;;;;9.25;2.72;;;;;;;;;;6253389;22;20075;-90
2023/10/04 23:21:09;;;;;;;8.27;2.65;;;;;;;;;;6302694;22;20079;-90
2023/10/04 23:24:14;;;;;;;12.52;2.42;;;;;;;;;;6303693;22;20019;-90
2023/10/04 23:27:00;;;;;;;5.28;2.05;;;;;;;;;;6310717;22;20033;-91
2023/10/04 23:29:44;;;;;;;;;;;;;;;;;;6311221;22;20011;-89
2023/10/04 23:32:26;;;;;;;8.52;2.15;;;;;;;;;;6308341;22;19903;-91
2023/10/04 23:35:10;;;;;;;7.53;2.78;;;;;;;;;;6310409;22;20007;-90
2023/10/04 23:43:20;;;;;;;;;;;;;;;;;;;;;
